Time;durP1;ratioP1;P1;durP2;ratioP2;P2;SDS_P1;SDS_P2;PMS_P1;PMS_P2;Temp;Humidity;BMP_temperature;BMP_pressure;BME280_temperature;BME280_humidity;BME280_pressure;Samples;Min_cycle;Max_cycle;Signal;HPM_P1;HPM_P2
2022/05/23 00:01:48;;;;;;;5.82;1.63;;;15.10;99.90;;;;;;5115446;28;20035;-55
2022/05/23 00:04:13;;;;;;;4.10;1.83;;;15.10;99.90;;;;;;5115392;28;20047;-55
2022/05/23 00:06:39;;;;;;;6.22;2.47;;;15.00;99.90;;;;;;5115346;28;20071;-55
2022/05/23 00:09:06;;;;;;;4.90;1.83;;;15.00;99.90;;;;;;5115153;28;20036;-55
2022/05/23 00:11:32;;;;;;;3.55;1.95;;;15.00;99.90;;;;;;5115105;28;20043;-55
2022/05/23 00:13:58;;;;;;;2.63;1.50;;;14.90;99.90;;;;;;5115010;28;20075;-55
2022/05/23 00:16:28;;;;;;;4.93;1.50;;;14.90;99.90;;;;;;5114946;28;20028;-55
2022/05/23 00:18:54;;;;;;;6.28;1.50;;;14.80;99.90;;;;;;5114951;28;20052;-55
2022/05/23 00:21:20;;;;;;;3.83;1.60;;;14.80;99.90;;;;;;5115151;28;20047;-55
2022/05/23 00:23:46;;;;;;;4.47;1.50;;;14.80;99.90;;;;;;5114952;28;20047;-55
2022/05/23 00:26:16;;;;;;;5.38;2.33;;;14.80;99.90;;;;;;5114880;28;20043;-55
2022/05/23 00:28:41;;;;;;;6.20;2.45;;;14.70;99.90;;;;;;5114765;28;20497;-55
2022/05/23 00:31:08;;;;;;;5.70;1.60;;;14.70;99.90;;;;;;5095592;28;20076;-55
2022/05/23 00:36:19;;;;;;;5.07;2.42;;;14.60;99.90;;;;;;5114689;28;20054;-55
2022/05/23 00:38:44;;;;;;;8.27;2.13;;;14.60;99.90;;;;;;5114452;28;20533;-55
2022/05/23 00:44:22;;;;;;;4.93;2.13;;;14.50;99.90;;;;;;5114397;28;20477;-56
2022/05/23 00:47:03;;;;;;;3.47;1.90;;;14.50;99.90;;;;;;5114578;28;20070;-55
2022/05/23 00:49:34;;;;;;;7.60;2.03;;;14.50;99.90;;;;;;5114313;28;20397;-55
2022/05/23 00:52:05;;;;;;;5.35;2.10;;;14.40;99.90;;;;;;5114545;28;20047;-55
2022/05/23 00:54:38;;;;;;;5.20;1.92;;;14.40;99.90;;;;;;5112971;28;20119;-55
2022/05/23 00:57:07;;;;;;;5.85;2.25;;;14.40;99.90;;;;;;5114705;28;20105;-55
2022/05/23 00:59:34;;;;;;;6.85;2.25;;;14.40;99.90;;;;;;5114407;28;20044;-55
2022/05/23 01:02:04;;;;;;;5.03;2.47;;;14.40;99.90;;;;;;5114124;28;20079;-55
2022/05/23 01:04:32;;;;;;;9.80;2.55;;;14.30;99.90;;;;;;5113945;28;20556;-55
2022/05/23 01:06:58;;;;;;;7.18;1.98;;;14.30;99.90;;;;;;5093626;28;20047;-55
2022/05/23 01:09:26;;;;;;;5.97;3.15;;;14.20;99.90;;;;;;5075570;28;20090;-55
2022/05/23 01:11:53;;;;;;;6.03;2.40;;;14.20;99.90;;;;;;5093657;28;20065;-55
2022/05/23 01:14:20;;;;;;;4.63;2.60;;;14.20;99.90;;;;;;5093477;28;20036;-55
2022/05/23 01:16:46;;;;;;;8.57;2.60;;;14.20;99.90;;;;;;5075424;28;20047;-55
2022/05/23 01:19:12;;;;;;;7.07;2.85;;;14.20;99.90;;;;;;5093202;28;20059;-55
2022/05/23 01:21:55;;;;;;;5.55;2.83;;;14.20;99.90;;;;;;5093260;28;20044;-55
2022/05/23 01:24:37;;;;;;;7.10;3.10;;;14.10;99.90;;;;;;5093291;28;20051;-55
2022/05/23 01:27:06;;;;;;;7.00;3.15;;;14.00;99.90;;;;;;5075197;28;20059;-55
2022/05/23 01:29:32;;;;;;;8.60;3.55;;;14.00;99.90;;;;;;5093199;28;20101;-55
2022/05/23 01:31:59;;;;;;;7.28;3.65;;;14.00;99.90;;;;;;5092991;28;20032;-55
2022/05/23 01:34:26;;;;;;;6.53;3.50;;;13.90;99.90;;;;;;5093013;28;20093;-55
2022/05/23 01:36:53;;;;;;;8.88;4.13;;;13.90;99.90;;;;;;5092976;28;20075;-55
2022/05/23 01:39:19;;;;;;;7.13;3.45;;;13.80;99.90;;;;;;5092965;28;20091;-55
2022/05/23 01:41:45;;;;;;;7.22;2.97;;;13.90;99.90;;;;;;5092973;28;20071;-55
2022/05/23 01:44:11;;;;;;;5.97;3.53;;;13.80;99.90;;;;;;5092759;28;20032;-55
2022/05/23 01:46:37;;;;;;;12.45;3.88;;;13.80;99.90;;;;;;5092943;28;20040;-55
2022/05/23 01:49:03;;;;;;;7.75;3.47;;;13.80;99.90;;;;;;5092897;28;20058;-54
2022/05/23 01:51:28;;;;;;;7.93;3.35;;;13.80;99.90;;;;;;5092632;28;20127;-55
2022/05/23 01:53:54;;;;;;;7.32;3.45;;;13.80;99.90;;;;;;5092577;28;20070;-55
2022/05/23 01:56:19;;;;;;;8.38;4.85;;;13.80;99.90;;;;;;5092580;28;20032;-55
2022/05/23 02:01:29;;;;;;;5.45;3.63;;;13.80;99.90;;;;;;5093043;28;20040;-55
2022/05/23 02:03:55;;;;;;;8.00;3.78;;;13.80;99.90;;;;;;5092454;28;20815;-54
2022/05/23 02:06:21;;;;;;;13.98;4.07;;;13.80;99.90;;;;;;5092790;28;20040;-55
2022/05/23 02:08:47;;;;;;;6.00;3.88;;;13.80;99.90;;;;;;5092438;28;20035;-55
2022/05/23 02:11:13;;;;;;;7.75;3.70;;;13.80;99.90;;;;;;5092644;28;20072;-55
2022/05/23 02:13:41;;;;;;;6.82;4.03;;;13.80;99.90;;;;;;5074212;28;20123;-55
2022/05/23 02:16:07;;;;;;;8.70;3.83;;;13.80;99.90;;;;;;5092412;28;20081;-55
2022/05/23 02:18:33;;;;;;;6.30;3.60;;;13.90;99.90;;;;;;5091524;28;20048;-55
2022/05/23 02:20:59;;;;;;;6.97;4.00;;;13.80;99.90;;;;;;5092358;28;20040;-55
2022/05/23 02:23:25;;;;;;;9.70;3.85;;;13.80;99.90;;;;;;5092253;28;20044;-55
2022/05/23 02:25:51;;;;;;;8.80;4.22;;;13.80;99.90;;;;;;5074477;28;20058;-55
2022/05/23 02:28:21;;;;;;;6.50;3.90;;;13.80;99.90;;;;;;5092329;28;20040;-55
2022/05/23 02:30:47;;;;;;;5.68;3.97;;;13.90;99.90;;;;;;5073933;28;20047;-55
2022/05/23 02:33:14;;;;;;;6.45;3.65;;;13.80;99.90;;;;;;5092160;28;20050;-55
2022/05/23 02:35:40;;;;;;;6.70;4.28;;;13.80;99.90;;;;;;5092118;28;20043;-54
2022/05/23 02:38:06;;;;;;;8.07;3.90;;;13.90;99.90;;;;;;5092452;28;20028;-56
2022/05/23 02:40:32;;;;;;;5.85;3.95;;;13.80;99.90;;;;;;5092176;28;20036;-55
2022/05/23 02:42:58;;;;;;;6.95;4.20;;;13.80;99.90;;;;;;5092134;28;20115;-53
2022/05/23 02:45:23;;;;;;;7.55;4.00;;;13.80;99.90;;;;;;5092095;28;20512;-55
2022/05/23 02:47:49;;;;;;;8.02;4.35;;;13.80;99.90;;;;;;5092239;28;20032;-55
2022/05/23 02:50:16;;;;;;;10.88;4.85;;;13.80;99.90;;;;;;5091749;28;20502;-55
2022/05/23 02:52:44;;;;;;;6.45;4.35;;;13.70;99.90;;;;;;5091756;28;20383;-55
2022/05/23 02:55:10;;;;;;;8.38;4.95;;;13.80;99.90;;;;;;5091798;28;20513;-55
2022/05/23 02:57:36;;;;;;;7.15;4.50;;;13.70;99.90;;;;;;5074087;28;20127;-54
2022/05/23 03:00:04;;;;;;;8.95;4.68;;;13.70;99.90;;;;;;5092061;28;20028;-55
2022/05/23 03:05:14;;;;;;;7.65;4.82;;;13.70;99.90;;;;;;5091928;28;20036;-55
2022/05/23 03:07:40;;;;;;;6.13;4.15;;;13.70;99.90;;;;;;5092052;28;20564;-55
2022/05/23 03:10:06;;;;;;;7.65;4.60;;;13.70;99.90;;;;;;5092212;28;20371;-55
2022/05/23 03:12:34;;;;;;;8.18;4.30;;;13.70;99.90;;;;;;5092066;28;20104;-55
2022/05/23 03:15:00;;;;;;;10.98;5.15;;;13.70;99.90;;;;;;5092067;28;20761;-55
2022/05/23 03:17:26;;;;;;;7.47;4.38;;;13.70;99.90;;;;;;5091832;28;20852;-55
2022/05/23 03:19:51;;;;;;;6.13;4.55;;;13.70;99.90;;;;;;5091604;28;20127;-55
2022/05/23 03:27:46;;;;;;;6.30;4.43;;;13.60;99.90;;;;;;5091458;28;20490;-55
2022/05/23 03:30:12;;;;;;;7.28;4.28;;;13.60;99.90;;;;;;5073571;28;20047;-55
2022/05/23 03:32:39;;;;;;;7.05;4.53;;;13.60;99.90;;;;;;5095330;28;20040;-55
2022/05/23 03:35:07;;;;;;;8.63;4.50;;;13.60;99.90;;;;;;5095359;28;20118;-55
2022/05/23 03:37:33;;;;;;;6.70;4.10;;;13.60;99.90;;;;;;5095438;28;20077;-54
2022/05/23 03:40:00;;;;;;;7.90;4.82;;;13.60;99.90;;;;;;5095234;28;20096;-55
2022/05/23 03:42:26;;;;;;;8.75;4.38;;;13.60;99.90;;;;;;5095180;28;20480;-55
2022/05/23 03:44:51;;;;;;;7.00;4.30;;;13.60;99.90;;;;;;5095156;28;20119;-55
2022/05/23 03:47:17;;;;;;;9.88;4.78;;;13.60;99.90;;;;;;5105794;28;20110;-55
2022/05/23 03:49:43;;;;;;;5.43;4.18;;;13.60;99.90;;;;;;5115119;28;20043;-55
2022/05/23 03:52:08;;;;;;;8.13;4.65;;;13.50;99.90;;;;;;5115499;28;20470;-55
2022/05/23 03:54:34;;;;;;;6.95;4.65;;;13.60;99.90;;;;;;5097250;28;20071;-55
2022/05/23 03:57:02;;;;;;;10.98;4.35;;;13.70;99.90;;;;;;5096949;28;20486;-55
2022/05/23 03:59:28;;;;;;;6.88;4.03;;;13.60;99.90;;;;;;5115536;28;20075;-55
2022/05/23 04:01:56;;;;;;;8.43;4.93;;;13.70;99.90;;;;;;5115551;28;20032;-55
2022/05/23 04:04:23;;;;;;;7.93;4.32;;;13.70;99.90;;;;;;5097355;28;20055;-55
2022/05/23 04:06:49;;;;;;;8.90;4.22;;;13.70;99.90;;;;;;5115167;28;20086;-54
2022/05/23 04:09:15;;;;;;;8.60;5.03;;;13.70;99.90;;;;;;5115386;28;20075;-55
2022/05/23 04:11:41;;;;;;;6.15;4.10;;;13.70;99.90;;;;;;5115307;28;20040;-55
2022/05/23 04:14:06;;;;;;;7.20;4.47;;;13.70;99.90;;;;;;5114935;28;20036;-55
2022/05/23 04:16:32;;;;;;;4.97;3.47;;;13.60;99.90;;;;;;5096815;28;20047;-54
2022/05/23 04:18:58;;;;;;;5.22;3.97;;;13.70;99.90;;;;;;5114879;28;20044;-56
2022/05/23 04:21:24;;;;;;;6.65;3.83;;;13.70;99.90;;;;;;5114890;28;20043;-55
2022/05/23 04:23:50;;;;;;;10.43;4.60;;;13.70;99.90;;;;;;5096596;28;20043;-55
2022/05/23 04:26:15;;;;;;;7.93;3.92;;;13.70;99.90;;;;;;5114924;28;20038;-55
2022/05/23 04:28:41;;;;;;;7.90;3.88;;;13.70;99.90;;;;;;5114835;28;20042;-55
2022/05/23 04:31:08;;;;;;;6.78;3.60;;;13.70;99.90;;;;;;5114771;28;20128;-55
2022/05/23 04:36:18;;;;;;;7.63;3.40;;;13.80;99.90;;;;;;5114608;28;20403;-55
2022/05/23 04:38:44;;;;;;;5.30;4.07;;;13.70;99.90;;;;;;5114553;28;20036;-55
2022/05/23 04:41:10;;;;;;;9.40;4.35;;;13.70;99.90;;;;;;5095261;28;20035;-55
2022/05/23 04:43:36;;;;;;;8.00;3.90;;;13.80;99.90;;;;;;5093892;28;20050;-55
2022/05/23 04:46:02;;;;;;;8.45;4.20;;;13.70;99.90;;;;;;5114214;28;20043;-55
2022/05/23 04:51:13;;;;;;;15.82;5.30;;;13.80;99.90;;;;;;5104175;28;20067;-55
2022/05/23 04:53:39;;;;;;;7.68;4.10;;;13.80;99.90;;;;;;5108782;28;20074;-55
2022/05/23 04:56:05;;;;;;;10.10;4.18;;;13.80;99.90;;;;;;5114308;28;20478;-55
2022/05/23 04:58:31;;;;;;;13.15;4.50;;;13.80;99.90;;;;;;5109950;28;20040;-55
2022/05/23 05:00:59;;;;;;;11.07;4.45;;;13.90;99.90;;;;;;5113687;28;20046;-55
2022/05/23 05:03:25;;;;;;;9.00;4.30;;;14.00;99.90;;;;;;5114279;28;20060;-54
2022/05/23 05:05:51;;;;;;;8.80;5.13;;;14.10;99.90;;;;;;5114110;28;20035;-55
2022/05/23 05:08:16;;;;;;;7.50;4.50;;;14.20;99.90;;;;;;5113771;28;20378;-55
2022/05/23 05:10:42;;;;;;;15.20;6.18;;;14.20;99.90;;;;;;5113678;28;20040;-55
2022/05/23 05:13:08;;;;;;;9.48;4.68;;;14.40;99.90;;;;;;5113890;28;20035;-55
2022/05/23 05:15:34;;;;;;;7.97;5.07;;;14.40;99.90;;;;;;5098260;28;20032;-55
2022/05/23 05:18:00;;;;;;;13.18;4.70;;;14.40;99.90;;;;;;5093295;28;20131;-55
2022/05/23 05:20:26;;;;;;;8.15;4.95;;;14.60;99.90;;;;;;5111435;28;20150;-55
2022/05/23 05:22:51;;;;;;;11.98;5.00;;;14.50;99.90;;;;;;5113682;28;20044;-55
2022/05/23 05:25:18;;;;;;;10.90;5.13;;;14.60;99.90;;;;;;5113342;28;20040;-55
2022/05/23 05:27:44;;;;;;;13.07;4.55;;;14.60;99.90;;;;;;5113375;28;20508;-55
2022/05/23 05:30:16;;;;;;;9.63;4.85;;;14.60;99.90;;;;;;5113573;28;20035;-54
2022/05/23 05:32:58;;;;;;;8.88;4.50;;;14.60;99.90;;;;;;5095098;28;20493;-55
2022/05/23 05:35:48;;;;;;;10.27;4.78;;;14.60;99.90;;;;;;5113269;28;20123;-55
2022/05/23 05:38:17;;;;;;;8.10;4.60;;;14.70;99.90;;;;;;5113389;28;20035;-54
2022/05/23 05:40:46;;;;;;;8.77;4.13;;;14.80;99.90;;;;;;5113380;28;20300;-55
2022/05/23 05:43:27;;;;;;;7.32;5.03;;;14.80;99.90;;;;;;5113150;28;20124;-55
2022/05/23 05:45:59;;;;;;;7.90;4.25;;;14.80;99.90;;;;;;5113271;28;20043;-55
2022/05/23 05:48:27;;;;;;;8.52;4.40;;;14.80;99.90;;;;;;5113438;28;20040;-55
2022/05/23 05:50:53;;;;;;;7.18;4.90;;;14.80;99.90;;;;;;5112845;28;20044;-55
2022/05/23 05:53:27;;;;;;;9.73;4.60;;;14.90;99.90;;;;;;5112325;28;20092;-55
2022/05/23 05:55:53;;;;;;;7.75;4.30;;;14.90;99.90;;;;;;5094737;28;20040;-55
2022/05/23 05:58:19;;;;;;;7.97;4.50;;;14.90;99.90;;;;;;5112926;28;20035;-55
2022/05/23 06:00:44;;;;;;;6.72;4.35;;;15.00;99.90;;;;;;5112826;28;20031;-55
2022/05/23 06:03:10;;;;;;;7.70;4.43;;;15.20;99.90;;;;;;5112844;28;20048;-55
2022/05/23 06:11:23;;;;;;;11.45;4.32;;;15.40;99.90;;;;;;5112827;28;20489;-55
2022/05/23 06:11:24;;;;;;;6.53;4.70;;;15.60;99.90;;;;;;5112982;28;20055;-55
2022/05/23 06:13:51;;;;;;;9.30;4.95;;;15.50;99.90;;;;;;5113046;28;20611;-55
2022/05/23 06:16:18;;;;;;;8.35;5.60;;;15.50;99.90;;;;;;5112252;28;20564;-56
2022/05/23 06:18:44;;;;;;;7.43;4.75;;;15.50;99.90;;;;;;5113011;28;20059;-55
2022/05/23 06:21:11;;;;;;;9.65;5.32;;;15.60;99.90;;;;;;5112930;28;20372;-55
2022/05/23 06:23:37;;;;;;;9.43;4.82;;;15.60;99.90;;;;;;5113221;28;20050;-55
2022/05/23 06:26:03;;;;;;;10.55;4.60;;;15.80;99.90;;;;;;5112655;28;20123;-55
2022/05/23 06:28:29;;;;;;;9.48;4.65;;;15.80;99.90;;;;;;5112622;28;20043;-56
2022/05/23 06:30:57;;;;;;;6.95;4.15;;;15.90;99.90;;;;;;5112632;28;20092;-56
2022/05/23 06:33:23;;;;;;;8.43;4.90;;;15.90;99.90;;;;;;5112367;28;20495;-55
2022/05/23 06:35:49;;;;;;;9.40;4.95;;;16.20;99.90;;;;;;5112521;28;20036;-55
2022/05/23 06:38:16;;;;;;;9.65;4.85;;;16.30;99.90;;;;;;5112749;28;20042;-55
2022/05/23 06:40:42;;;;;;;8.07;4.50;;;16.50;99.90;;;;;;5094423;28;20090;-55
2022/05/23 06:43:08;;;;;;;9.15;3.80;;;16.60;99.90;;;;;;5112664;28;20040;-55
2022/05/23 06:45:33;;;;;;;7.00;4.20;;;16.70;99.90;;;;;;5112047;28;20441;-56
2022/05/23 06:47:59;;;;;;;9.98;4.40;;;16.70;99.90;;;;;;5112254;28;20042;-56
2022/05/23 06:50:25;;;;;;;6.57;4.30;;;16.70;99.90;;;;;;5112211;28;20134;-55
2022/05/23 06:52:50;;;;;;;11.50;4.40;;;16.70;99.90;;;;;;5112280;28;20393;-56
2022/05/23 06:55:16;;;;;;;7.72;4.00;;;16.70;99.90;;;;;;5112331;28;20043;-56
2022/05/23 06:57:42;;;;;;;6.97;4.22;;;16.90;99.90;;;;;;5092589;28;20036;-56
2022/05/23 07:00:09;;;;;;;8.30;4.55;;;17.00;99.90;;;;;;5111587;28;20170;-55
2022/05/23 07:02:36;;;;;;;7.78;4.43;;;17.10;99.90;;;;;;5112399;28;20122;-55
2022/05/23 07:13:15;;;;;;;7.97;4.88;;;17.70;99.90;;;;;;5097956;28;20048;-55
2022/05/23 07:15:46;;;;;;;7.00;4.30;;;17.60;99.90;;;;;;5097811;28;20109;-55
2022/05/23 07:18:13;;;;;;;6.32;4.35;;;17.60;99.90;;;;;;5097679;28;20051;-55
2022/05/23 07:20:40;;;;;;;6.45;4.38;;;17.70;99.90;;;;;;5116191;28;20428;-55
2022/05/23 07:23:06;;;;;;;7.40;4.30;;;17.90;99.90;;;;;;5098386;28;20047;-55
2022/05/23 07:25:32;;;;;;;8.93;4.70;;;18.10;99.90;;;;;;5116421;28;20073;-55
2022/05/23 07:27:58;;;;;;;8.70;4.03;;;18.20;99.90;;;;;;5115456;28;20039;-56
2022/05/23 07:30:23;;;;;;;8.55;4.30;;;18.30;99.90;;;;;;5115761;28;20367;-56
2022/05/23 07:32:49;;;;;;;8.43;4.50;;;18.60;99.90;;;;;;5080782;28;20542;-55
2022/05/23 07:35:19;;;;;;;7.18;4.95;;;18.70;99.90;;;;;;5115709;28;20043;-55
2022/05/23 07:37:44;;;;;;;8.05;4.28;;;18.80;99.90;;;;;;5098714;28;20032;-56
2022/05/23 07:40:11;;;;;;;11.15;4.50;;;18.90;99.90;;;;;;5116263;28;20365;-56
2022/05/23 07:42:37;;;;;;;7.97;4.75;;;19.00;99.90;;;;;;5115935;28;20042;-56
2022/05/23 07:45:05;;;;;;;9.80;4.30;;;19.10;99.90;;;;;;5115752;28;20035;-56
2022/05/23 07:47:31;;;;;;;8.25;4.60;;;19.10;99.90;;;;;;5115781;28;20036;-56
2022/05/23 07:49:56;;;;;;;10.20;3.90;;;19.00;99.90;;;;;;5115379;28;20051;-56
2022/05/23 07:52:23;;;;;;;5.88;4.60;;;19.10;99.90;;;;;;5115032;28;20111;-55
2022/05/23 08:00:33;;;;;;;9.20;4.72;;;19.40;99.90;;;;;;5115045;28;20096;-55
2022/05/23 08:03:19;;;;;;;5.40;4.53;;;19.30;99.90;;;;;;5109435;28;20449;-56
2022/05/23 08:05:45;;;;;;;9.10;4.72;;;19.40;99.90;;;;;;5094936;28;20036;-56
2022/05/23 08:08:11;;;;;;;5.97;4.68;;;19.30;99.90;;;;;;5095023;28;20093;-56
2022/05/23 08:10:37;;;;;;;8.10;4.70;;;19.30;99.90;;;;;;5094884;28;20119;-55
2022/05/23 08:13:09;;;;;;;6.38;4.15;;;19.30;99.90;;;;;;5094769;28;20036;-56
2022/05/23 08:15:37;;;;;;;10.02;4.35;;;19.30;99.90;;;;;;5095148;28;20032;-55
2022/05/23 08:18:07;;;;;;;6.40;4.43;;;19.50;99.90;;;;;;5094016;28;20035;-56
2022/05/23 08:20:35;;;;;;;11.18;4.72;;;19.50;99.90;;;;;;5095116;28;20085;-55
2022/05/23 08:23:01;;;;;;;9.47;5.30;;;19.50;99.90;;;;;;5095090;28;20040;-56
2022/05/23 08:25:27;;;;;;;6.70;4.65;;;19.50;99.90;;;;;;5112382;28;20077;-56
2022/05/23 08:27:56;;;;;;;6.82;4.50;;;19.40;99.90;;;;;;5115343;28;20871;-55
2022/05/23 08:30:22;;;;;;;10.20;5.72;;;19.50;99.90;;;;;;5097721;28;20040;-56
2022/05/23 08:32:50;;;;;;;8.98;4.68;;;19.70;99.90;;;;;;5115132;28;20049;-56
2022/05/23 08:35:16;;;;;;;8.82;4.88;;;19.80;99.90;;;;;;5114906;28;20043;-55
2022/05/23 08:37:42;;;;;;;6.88;4.43;;;20.10;99.90;;;;;;5115025;28;20032;-56
2022/05/23 08:40:09;;;;;;;11.27;4.95;;;20.50;99.90;;;;;;5115270;28;20823;-55
2022/05/23 08:42:56;;;;;;;8.68;4.57;;;20.80;99.90;;;;;;5115105;28;20070;-56
2022/05/23 08:45:25;;;;;;;7.60;4.45;;;21.00;99.90;;;;;;5114610;28;20462;-55
2022/05/23 08:48:27;;;;;;;12.82;4.78;;;21.20;99.90;;;;;;5115157;28;20142;-56
2022/05/23 08:51:21;;;;;;;7.18;4.20;;;21.30;99.90;;;;;;5111742;28;20044;-55
2022/05/23 08:53:50;;;;;;;9.77;4.40;;;21.30;99.90;;;;;;5096382;28;20774;-56
2022/05/23 08:56:37;;;;;;;8.13;5.15;;;21.30;99.90;;;;;;5114539;28;20044;-56
2022/05/23 08:59:05;;;;;;;7.93;4.65;;;21.20;99.90;;;;;;5114575;28;20043;-56
2022/05/23 09:01:39;;;;;;;6.43;4.50;;;21.10;99.90;;;;;;5113393;28;20039;-56
2022/05/23 09:04:31;;;;;;;8.20;4.72;;;21.20;99.90;;;;;;5114514;28;20047;-56
2022/05/23 09:06:59;;;;;;;6.85;3.85;;;21.30;99.90;;;;;;5031590;28;20053;-55
2022/05/23 09:09:25;;;;;;;6.13;4.57;;;21.40;99.90;;;;;;5031367;28;20049;-56
2022/05/23 09:12:09;;;;;;;9.27;4.93;;;21.80;99.90;;;;;;5031183;28;20049;-55
2022/05/23 09:14:35;;;;;;;8.52;5.10;;;22.10;99.90;;;;;;5031487;28;20042;-56
2022/05/23 09:17:03;;;;;;;8.32;4.80;;;22.30;99.90;;;;;;5031427;28;20037;-56
2022/05/23 09:20:01;;;;;;;10.63;4.25;;;22.40;99.90;;;;;;5031006;28;20538;-55
2022/05/23 09:22:35;;;;;;;8.60;5.55;;;22.80;99.90;;;;;;5031256;28;20050;-55
2022/05/23 09:25:02;;;;;;;5.97;4.28;;;22.70;99.90;;;;;;5031139;28;20053;-56
2022/05/23 09:27:31;;;;;;;8.13;4.28;;;22.90;99.90;;;;;;5030998;28;20125;-55
2022/05/23 09:29:59;;;;;;;8.15;4.25;;;23.30;99.90;;;;;;5030839;28;20038;-56
2022/05/23 09:32:56;;;;;;;7.57;4.03;;;23.60;99.90;;;;;;5030798;28;20046;-55
2022/05/23 09:35:25;;;;;;;6.30;4.05;;;23.90;99.90;;;;;;5028015;28;20147;-56
2022/05/23 09:38:12;;;;;;;7.45;3.85;;;23.90;99.90;;;;;;5031057;28;20088;-56
2022/05/23 09:40:38;;;;;;;8.35;4.55;;;24.40;99.90;;;;;;5030966;28;20072;-56
2022/05/23 09:49:16;;;;;;;5.25;3.20;;;24.40;99.90;;;;;;5105883;28;20047;-56
2022/05/23 09:51:54;;;;;;;5.55;3.17;;;24.70;99.90;;;;;;5113241;28;20500;-56
2022/05/23 09:54:46;;;;;;;7.55;3.20;;;24.50;99.90;;;;;;5113728;28;20094;-56
2022/05/23 09:57:39;;;;;;;5.35;2.63;;;24.20;99.90;;;;;;5009189;28;20042;-56
2022/05/23 10:00:33;;;;;;;5.00;2.78;;;24.20;99.90;;;;;;4999343;28;20129;-56
2022/05/23 10:03:01;;;;;;;5.93;2.63;;;24.30;99.90;;;;;;5004890;28;20188;-56
2022/05/23 10:06:00;;;;;;;9.60;3.33;;;24.20;99.90;;;;;;5007087;28;20051;-56
2022/05/23 10:08:28;;;;;;;5.93;2.95;;;24.10;99.90;;;;;;5005145;28;20054;-56
2022/05/23 10:10:58;;;;;;;6.50;2.40;;;24.00;99.90;;;;;;5004091;28;20459;-56
2022/05/23 10:13:26;;;;;;;21.23;3.17;;;24.00;99.90;;;;;;4994309;28;20449;-56
2022/05/23 10:16:17;;;;;;;4.22;2.53;;;24.00;99.90;;;;;;5010585;28;20099;-56
2022/05/23 10:18:50;;;;;;;4.70;2.90;;;24.00;99.90;;;;;;4993764;28;20057;-56
2022/05/23 10:21:31;;;;;;;6.38;2.65;;;23.90;99.90;;;;;;5010396;28;20072;-57
2022/05/23 10:24:07;;;;;;;2.92;2.15;;;23.90;99.90;;;;;;5009879;28;20569;-56
2022/05/23 10:26:46;;;;;;;5.53;2.33;;;23.90;99.90;;;;;;4994127;28;20189;-55
2022/05/23 10:29:34;;;;;;;7.78;2.33;;;23.70;99.90;;;;;;4993443;28;20052;-56
2022/05/23 10:32:09;;;;;;;7.20;2.15;;;23.80;99.90;;;;;;5010131;28;20053;-56
2022/05/23 10:34:44;;;;;;;5.72;2.42;;;24.00;99.90;;;;;;5056266;28;20695;-56
2022/05/23 10:37:32;;;;;;;5.30;2.65;;;24.10;99.90;;;;;;5092697;28;20382;-56
2022/05/23 10:42:57;;;;;;;7.88;2.65;;;24.50;99.90;;;;;;5085350;28;20043;-56
2022/05/23 10:45:46;;;;;;;6.45;2.80;;;24.50;99.90;;;;;;5090560;28;20051;-56
2022/05/23 10:48:31;;;;;;;4.40;2.28;;;24.40;99.90;;;;;;5079946;28;20032;-57
2022/05/23 10:51:29;;;;;;;3.63;2.38;;;24.50;99.90;;;;;;5071892;28;20044;-56
2022/05/23 10:54:07;;;;;;;5.72;2.30;;;24.70;99.90;;;;;;5071989;28;20052;-56
2022/05/23 10:56:39;;;;;;;5.53;2.33;;;24.80;99.90;;;;;;5071952;28;20542;-56
2022/05/23 10:59:22;;;;;;;5.28;2.85;;;25.10;99.90;;;;;;5071995;28;20044;-56
2022/05/23 11:01:53;;;;;;;4.05;2.60;;;25.40;99.90;;;;;;5071481;28;20041;-59
2022/05/23 11:04:22;;;;;;;4.57;2.70;;;25.70;99.90;;;;;;5071544;28;20036;-59
2022/05/23 11:07:06;;;;;;;7.85;2.75;;;26.20;99.90;;;;;;5071429;28;20127;-59
2022/05/23 11:09:49;;;;;;;6.88;2.65;;;26.40;99.90;;;;;;5071284;28;20045;-60
2022/05/23 11:13:02;;;;;;;5.78;2.00;;;26.30;99.90;;;;;;5071258;28;20047;-59
2022/05/23 11:15:42;;;;;;;4.85;2.03;;;26.50;99.90;;;;;;5048864;28;20411;-59
2022/05/23 11:18:31;;;;;;;3.83;2.08;;;26.60;99.10;;;;;;5049446;28;20480;-59
2022/05/23 11:21:02;;;;;;;7.65;2.30;;;26.50;99.10;;;;;;5069038;28;20045;-60
2022/05/23 11:23:43;;;;;;;6.30;2.60;;;27.00;98.90;;;;;;5069038;28;20044;-60
2022/05/23 11:26:27;;;;;;;6.30;1.88;;;27.30;98.80;;;;;;5068908;28;20048;-59
2022/05/23 11:35:01;;;;;;;12.82;2.22;;;27.90;97.40;;;;;;5068992;28;20041;-59
2022/05/23 11:40:01;;;;;;;5.85;2.28;;;28.20;96.70;;;;;;5068816;28;20046;-59
2022/05/23 11:42:30;;;;;;;6.47;2.33;;;28.60;97.20;;;;;;5068505;28;20052;-59
2022/05/23 11:49:00;;;;;;;3.33;2.00;;;28.90;96.40;;;;;;5009110;28;20052;-60
2022/05/23 11:51:36;;;;;;;5.82;2.35;;;29.00;95.70;;;;;;4942208;29;20521;-60
2022/05/23 11:54:21;;;;;;;4.15;2.00;;;28.30;97.00;;;;;;4935450;29;20099;-59
2022/05/23 11:57:04;;;;;;;2.90;1.50;;;27.90;97.00;;;;;;4935301;29;20086;-59
2022/05/23 11:59:30;;;;;;;3.13;1.38;;;28.00;96.60;;;;;;4935213;29;20502;-59
2022/05/23 12:02:11;;;;;;;4.28;1.88;;;28.10;96.80;;;;;;4935177;29;20050;-60
2022/05/23 12:04:52;;;;;;;5.80;1.45;;;28.00;96.10;;;;;;4934963;29;20048;-59
2022/05/23 12:07:39;;;;;;;6.13;1.83;;;28.00;96.30;;;;;;4935027;29;20051;-60
2022/05/23 12:10:25;;;;;;;5.15;1.40;;;27.60;95.70;;;;;;4992856;28;20046;-60
2022/05/23 12:12:56;;;;;;;2.50;1.45;;;27.60;95.20;;;;;;4992677;28;20634;-60
2022/05/23 12:15:43;;;;;;;4.65;1.70;;;27.60;95.30;;;;;;4992923;28;20508;-60
2022/05/23 12:18:23;;;;;;;6.00;1.80;;;27.40;95.90;;;;;;4992397;28;20046;-59
2022/05/23 12:20:52;;;;;;;5.05;1.60;;;27.20;96.40;;;;;;4992674;28;20121;-60
2022/05/23 12:23:37;;;;;;;3.17;1.73;;;27.60;97.00;;;;;;4992565;28;20049;-59
2022/05/23 12:26:19;;;;;;;3.78;1.73;;;27.80;97.20;;;;;;4992510;28;20504;-60
2022/05/23 12:28:45;;;;;;;4.88;1.70;;;27.60;95.80;;;;;;5050744;28;20118;-60
2022/05/23 12:31:14;;;;;;;5.10;1.90;;;27.10;96.00;;;;;;5051526;28;20498;-60
2022/05/23 12:34:03;;;;;;;2.78;1.30;;;26.90;96.10;;;;;;5034827;28;20569;-60
2022/05/23 12:36:35;;;;;;;4.75;1.38;;;26.60;96.20;;;;;;5031884;28;20104;-60
2022/05/23 12:39:25;;;;;;;3.75;1.60;;;26.50;97.10;;;;;;5031792;28;20068;-60
2022/05/23 12:42:13;;;;;;;3.28;1.73;;;26.30;96.80;;;;;;5031529;28;20530;-60
2022/05/23 12:45:04;;;;;;;5.13;1.60;;;26.20;96.80;;;;;;5031495;28;20404;-60
2022/05/23 12:47:50;;;;;;;3.92;1.85;;;26.10;96.30;;;;;;5014943;28;20145;-60
2022/05/23 12:50:24;;;;;;;5.07;1.42;;;26.10;97.60;;;;;;5031510;28;20045;-56
2022/05/23 12:53:02;;;;;;;7.22;1.52;;;26.00;97.20;;;;;;5032036;28;20530;-56
2022/05/23 12:55:27;;;;;;;4.45;1.90;;;25.90;97.90;;;;;;5031682;28;20042;-56
2022/05/23 12:58:02;;;;;;;4.18;1.55;;;25.80;98.20;;;;;;5031370;28;20143;-56
2022/05/23 13:00:34;;;;;;;4.25;1.73;;;25.70;98.70;;;;;;5014869;28;20128;-56
2022/05/23 13:03:41;;;;;;;3.15;1.88;;;25.60;98.10;;;;;;5031374;28;20486;-56
2022/05/23 13:06:18;;;;;;;3.38;1.67;;;25.50;97.50;;;;;;5031503;28;20045;-56
2022/05/23 13:09:02;;;;;;;3.58;1.75;;;25.40;98.20;;;;;;5031518;28;20038;-54
2022/05/23 13:11:36;;;;;;;2.47;1.65;;;25.30;97.30;;;;;;5031373;28;20116;-54
2022/05/23 13:14:02;;;;;;;2.97;1.80;;;25.40;98.50;;;;;;5059912;28;20045;-54
2022/05/23 13:16:34;;;;;;;6.60;1.77;;;25.30;98.60;;;;;;5073395;28;20382;-54
2022/05/23 13:22:05;;;;;;;8.52;2.00;;;24.90;98.80;;;;;;5093342;28;20040;-54
2022/05/23 13:24:52;;;;;;;6.55;2.13;;;24.90;98.80;;;;;;5093422;28;20044;-54
2022/05/23 13:27:41;;;;;;;2.67;1.73;;;24.90;99.40;;;;;;5075331;28;20478;-55
2022/05/23 13:30:18;;;;;;;4.60;2.40;;;24.70;99.40;;;;;;5074972;28;20402;-54
2022/05/23 13:32:58;;;;;;;5.95;2.00;;;24.70;99.90;;;;;;5093400;28;20055;-54
2022/05/23 13:35:25;;;;;;;4.55;2.20;;;24.70;99.90;;;;;;5093256;28;20036;-54
2022/05/23 13:37:51;;;;;;;5.70;2.10;;;24.70;99.90;;;;;;5093353;28;20050;-54
2022/05/23 13:40:29;;;;;;;6.53;2.03;;;24.70;99.90;;;;;;5092974;28;20115;-54
2022/05/23 13:43:31;;;;;;;2.95;1.83;;;24.70;99.90;;;;;;5093146;28;20134;-54
2022/05/23 13:46:06;;;;;;;6.07;2.15;;;24.60;99.90;;;;;;5093013;28;20047;-54
2022/05/23 13:48:46;;;;;;;2.53;1.60;;;24.50;99.90;;;;;;5092926;28;20036;-54
2022/05/23 13:51:14;;;;;;;;;;;24.60;99.90;;;;;;5075162;28;20043;-54
2022/05/23 13:54:06;;;;;;;6.80;2.17;;;24.50;99.90;;;;;;5074423;28;20011;-56
2022/05/23 13:56:33;;;;;;;8.85;2.45;;;24.50;99.90;;;;;;5093317;28;20048;-56
2022/05/23 13:59:05;;;;;;;4.47;2.20;;;24.50;99.90;;;;;;5092712;28;20036;-56
2022/05/23 14:01:55;;;;;;;10.48;2.50;;;24.40;99.90;;;;;;5092731;28;20486;-56
2022/05/23 14:04:26;;;;;;;5.85;2.67;;;24.30;99.90;;;;;;5092635;28;20545;-56
2022/05/23 14:06:57;;;;;;;5.85;2.38;;;24.00;99.90;;;;;;5104935;28;20074;-55
2022/05/23 14:09:23;;;;;;;4.75;2.10;;;24.00;99.90;;;;;;5112679;28;20181;-55
2022/05/23 14:11:53;;;;;;;5.05;2.50;;;23.90;99.90;;;;;;5112242;28;20050;-56